createdAt,value
2022-11-16T00:01:08.794Z,18.2
2022-11-16T00:02:10.807Z,18.2
2022-11-16T00:03:13.359Z,18.1
2022-11-16T00:04:15.570Z,18.2
2022-11-16T00:05:17.210Z,18.2
2022-11-16T00:06:18.844Z,18.3
2022-11-16T00:07:21.505Z,18.3
2022-11-16T00:08:24.360Z,18.3
2022-11-16T00:09:26.557Z,18.3
2022-11-16T00:10:29.318Z,18.4
2022-11-16T00:11:31.241Z,18.3
2022-11-16T00:12:33.222Z,18.4
2022-11-16T00:13:35.412Z,18.3
2022-11-16T00:14:37.919Z,18.3
2022-11-16T00:15:40.110Z,18.2
2022-11-16T00:16:42.065Z,18.3
2022-11-16T00:17:44.562Z,18.3
2022-11-16T00:18:47.041Z,18.4
2022-11-16T00:19:49.504Z,18.4
2022-11-16T00:20:51.991Z,18.4
2022-11-16T00:21:54.471Z,18.3
2022-11-16T00:22:57.048Z,18.4
2022-11-16T00:23:59.515Z,18.3
2022-11-16T00:25:01.720Z,18.5
2022-11-16T00:26:04.186Z,18.4
2022-11-16T00:27:06.664Z,18.4
2022-11-16T00:28:08.882Z,18.4
2022-11-16T00:29:11.367Z,18.4
2022-11-16T00:30:13.644Z,18.4
2022-11-16T00:31:16.136Z,18.3
2022-11-16T00:32:17.790Z,18.4
2022-11-16T00:33:19.992Z,18.5
2022-11-16T00:34:22.183Z,18.4
2022-11-16T00:35:24.676Z,18.4
2022-11-16T00:36:26.865Z,18.4
2022-11-16T00:37:29.114Z,18.4
2022-11-16T00:38:32.632Z,18.4
2022-11-16T00:39:36.619Z,18.4
2022-11-16T00:40:38.584Z,18.5
2022-11-16T00:41:41.116Z,18.5
2022-11-16T00:42:43.616Z,18.5
2022-11-16T00:43:46.104Z,18.4
2022-11-16T00:44:48.588Z,18.5
2022-11-16T00:45:51.063Z,18.5
2022-11-16T00:46:53.541Z,18.5
2022-11-16T00:49:00.743Z,18.5
2022-11-16T00:50:02.674Z,18.5
2022-11-16T00:51:05.162Z,18.5
2022-11-16T00:52:07.081Z,18.5
2022-11-16T00:53:09.543Z,18.5
2022-11-16T00:54:11.809Z,18.5
2022-11-16T00:55:14.282Z,18.5
2022-11-16T00:56:16.201Z,18.5
2022-11-16T00:57:18.661Z,18.5
2022-11-16T00:58:21.140Z,18.6
2022-11-16T00:59:23.072Z,18.5
2022-11-16T01:00:25.547Z,18.5
2022-11-16T01:01:28.205Z,18.6
2022-11-16T01:02:30.933Z,18.6
2022-11-16T01:03:33.126Z,18.6
2022-11-16T01:04:35.059Z,18.5
2022-11-16T01:05:37.556Z,18.5
2022-11-16T01:06:39.753Z,18.5
2022-11-16T01:07:42.225Z,18.5
2022-11-16T01:08:44.412Z,18.6
2022-11-16T01:09:46.805Z,18.6
2022-11-16T01:10:49.142Z,18.5
2022-11-16T01:11:51.617Z,18.6
2022-11-16T01:12:53.801Z,18.5
2022-11-16T01:13:55.701Z,18.5
2022-11-16T01:14:57.899Z,18.6
2022-11-16T01:16:00.095Z,18.4
2022-11-16T01:17:02.285Z,18.5
2022-11-16T01:18:04.493Z,18.6
2022-11-16T01:19:06.714Z,18.6
2022-11-16T01:20:09.313Z,18.5
2022-11-16T01:21:11.810Z,18.5
2022-11-16T01:22:13.698Z,18.6
2022-11-16T01:23:16.177Z,18.6
2022-11-16T01:24:18.367Z,18.6
2022-11-16T01:25:20.612Z,18.5
2022-11-16T01:26:23.079Z,18.6
2022-11-16T01:27:25.279Z,18.5
2022-11-16T01:28:27.207Z,18.6
2022-11-16T01:29:29.485Z,18.5
2022-11-16T01:30:31.438Z,18.6
2022-11-16T01:31:33.908Z,18.6
2022-11-16T01:32:36.377Z,18.7
2022-11-16T01:33:38.582Z,18.6
2022-11-16T01:34:40.746Z,18.7
2022-11-16T01:35:43.254Z,18.6
2022-11-16T01:36:45.210Z,18.7
2022-11-16T01:37:47.694Z,18.6
2022-11-16T01:38:49.383Z,18.7
2022-11-16T01:39:51.562Z,18.7
2022-11-16T01:40:53.794Z,18.6
2022-11-16T01:41:55.990Z,18.6
2022-11-16T01:42:58.182Z,18.8
2022-11-16T01:44:00.649Z,18.7
2022-11-16T01:45:02.847Z,18.7
2022-11-16T01:46:05.348Z,18.7
2022-11-16T01:47:07.852Z,18.7
2022-11-16T01:48:10.385Z,18.6
2022-11-16T01:49:12.792Z,18.7
2022-11-16T01:50:14.722Z,18.7
2022-11-16T01:51:16.685Z,18.7
2022-11-16T01:52:18.895Z,18.7
2022-11-16T01:53:21.110Z,18.7
2022-11-16T01:54:23.300Z,18.7
2022-11-16T01:55:25.490Z,18.7
2022-11-16T01:56:27.468Z,18.6
2022-11-16T01:57:29.128Z,18.7
2022-11-16T01:58:31.999Z,18.7
2022-11-16T01:59:36.030Z,18.7
2022-11-16T02:00:38.219Z,18.7
2022-11-16T02:01:40.892Z,18.8
2022-11-16T02:02:43.692Z,18.8
2022-11-16T02:03:45.911Z,18.9
2022-11-16T02:04:48.385Z,18.7
2022-11-16T02:05:50.589Z,18.7
2022-11-16T02:06:52.997Z,18.8
2022-11-16T02:07:55.439Z,18.7
2022-11-16T02:08:57.903Z,18.7
2022-11-16T02:10:00.376Z,18.8
2022-11-16T02:11:02.563Z,18.8
2022-11-16T02:12:05.078Z,18.7
2022-11-16T02:13:07.274Z,18.8
2022-11-16T02:14:09.193Z,18.8
2022-11-16T02:15:11.654Z,18.8
2022-11-16T02:16:14.126Z,18.9
2022-11-16T02:17:16.335Z,18.8
2022-11-16T02:18:17.961Z,18.8
2022-11-16T02:19:20.166Z,18.8
2022-11-16T02:20:23.132Z,18.7
2022-11-16T02:21:25.318Z,18.8
2022-11-16T02:22:27.542Z,18.9
2022-11-16T02:23:29.759Z,18.8
2022-11-16T02:24:31.953Z,18.8
2022-11-16T02:25:34.418Z,18.8
2022-11-16T02:26:36.895Z,18.8
2022-11-16T02:27:39.135Z,18.8
2022-11-16T02:28:41.624Z,18.8
2022-11-16T02:29:43.811Z,18.8
2022-11-16T02:30:45.721Z,18.8
2022-11-16T02:31:48.208Z,18.7
2022-11-16T02:32:50.437Z,18.9
2022-11-16T02:33:52.626Z,18.8
2022-11-16T02:34:54.548Z,18.8
2022-11-16T02:35:57.025Z,18.9
2022-11-16T02:36:59.221Z,18.9
2022-11-16T02:38:01.443Z,18.8
2022-11-16T02:39:03.933Z,18.8
2022-11-16T02:40:06.411Z,18.7
2022-11-16T02:41:08.320Z,18.8
2022-11-16T02:42:10.247Z,18.9
2022-11-16T02:43:12.491Z,18.8
2022-11-16T02:44:14.122Z,18.7
2022-11-16T02:45:16.605Z,18.8
2022-11-16T02:46:18.794Z,18.9
2022-11-16T02:47:20.718Z,18.8
2022-11-16T02:48:23.220Z,18.9
2022-11-16T02:49:25.690Z,18.9
2022-11-16T02:50:27.631Z,18.7
2022-11-16T02:51:30.111Z,18.7
2022-11-16T02:52:32.307Z,18.8
2022-11-16T02:53:34.811Z,18.8
2022-11-16T02:54:36.740Z,18.8
2022-11-16T02:55:38.669Z,18.9
2022-11-16T02:56:40.874Z,18.9
2022-11-16T02:57:43.086Z,18.8
2022-11-16T02:58:45.589Z,18.9
2022-11-16T02:59:48.058Z,18.9
2022-11-16T03:00:50.630Z,18.9
2022-11-16T03:01:53.089Z,18.8
2022-11-16T03:02:55.287Z,18.8
2022-11-16T03:03:57.792Z,18.8
2022-11-16T03:04:59.995Z,18.9
2022-11-16T03:06:02.473Z,18.9
2022-11-16T03:07:04.276Z,18.9
2022-11-16T03:08:06.907Z,18.9
2022-11-16T03:09:09.176Z,19
2022-11-16T03:10:11.133Z,18.8
2022-11-16T03:11:13.334Z,18.8
2022-11-16T03:12:15.798Z,18.9
2022-11-16T03:13:18.296Z,18.9
2022-11-16T03:14:20.808Z,18.9
2022-11-16T03:15:22.474Z,18.9
2022-11-16T03:16:24.939Z,18.8
2022-11-16T03:17:27.135Z,18.9
2022-11-16T03:18:29.041Z,18.9
2022-11-16T03:19:31.987Z,19
2022-11-16T03:20:34.536Z,18.8
2022-11-16T03:21:37.022Z,19
2022-11-16T03:22:39.232Z,18.8
2022-11-16T03:23:41.705Z,18.9
2022-11-16T03:24:44.192Z,18.9
2022-11-16T03:25:46.394Z,18.9
2022-11-16T03:26:48.014Z,18.9
2022-11-16T03:27:50.221Z,18.9
2022-11-16T03:28:52.434Z,18.9
2022-11-16T03:29:54.966Z,18.8
2022-11-16T03:30:57.442Z,18.9
2022-11-16T03:31:59.658Z,19
2022-11-16T03:33:01.584Z,18.9
2022-11-16T03:34:03.766Z,18.9
2022-11-16T03:35:05.994Z,18.8
2022-11-16T03:36:08.458Z,18.9
2022-11-16T03:37:10.937Z,18.9
2022-11-16T03:38:13.138Z,19
2022-11-16T03:39:15.641Z,18.9
2022-11-16T03:40:17.869Z,19
2022-11-16T03:41:20.088Z,19
2022-11-16T03:42:22.570Z,19
2022-11-16T03:43:25.046Z,18.8
2022-11-16T03:44:27.533Z,18.9
2022-11-16T03:45:30.054Z,18.9
2022-11-16T03:46:31.978Z,19.1
2022-11-16T03:47:33.924Z,18.9
2022-11-16T03:48:37.081Z,19
2022-11-16T03:49:39.322Z,19
2022-11-16T03:50:41.546Z,19
2022-11-16T03:51:43.758Z,18.9
2022-11-16T03:52:46.227Z,19
2022-11-16T03:53:48.434Z,18.8
2022-11-16T03:54:50.642Z,18.9
2022-11-16T03:55:52.864Z,18.8
2022-11-16T03:56:55.381Z,18.8
2022-11-16T03:57:57.309Z,18.9
2022-11-16T03:58:59.503Z,18.9
2022-11-16T04:00:02.039Z,19
2022-11-16T04:01:04.709Z,19
2022-11-16T04:02:07.575Z,18.9
2022-11-16T04:03:09.888Z,19
2022-11-16T04:04:12.493Z,18.9
2022-11-16T04:05:14.386Z,18.8
2022-11-16T04:06:16.688Z,18.8
2022-11-16T04:07:19.178Z,18.8
2022-11-16T04:08:22.036Z,18.9
2022-11-16T04:09:24.757Z,18.9
2022-11-16T04:10:27.267Z,18.9
2022-11-16T04:11:29.811Z,18.9
2022-11-16T04:12:32.334Z,18.7
2022-11-16T04:13:34.833Z,18.9
2022-11-16T04:14:36.757Z,18.7
2022-11-16T04:15:39.231Z,18.7
2022-11-16T04:16:41.482Z,18.7
2022-11-16T04:17:43.948Z,18.7
2022-11-16T04:18:46.184Z,18.7
2022-11-16T04:19:48.083Z,18.8
2022-11-16T04:20:54.536Z,18.8
2022-11-16T04:21:57.028Z,18.7
2022-11-16T04:22:59.229Z,18.8
2022-11-16T04:24:01.762Z,18.7
2022-11-16T04:25:04.235Z,18.7
2022-11-16T04:26:06.449Z,18.7
2022-11-16T04:27:08.964Z,18.7
2022-11-16T04:28:11.467Z,18.7
2022-11-16T04:29:13.662Z,18.7
2022-11-16T04:30:16.159Z,18.8
2022-11-16T04:31:18.359Z,18.7
2022-11-16T04:32:20.667Z,18.6
2022-11-16T04:33:23.147Z,18.7
2022-11-16T04:34:25.335Z,18.6
2022-11-16T04:35:27.554Z,18.8
2022-11-16T04:36:29.480Z,18.6
2022-11-16T04:37:31.728Z,18.7
2022-11-16T04:38:34.940Z,18.7
2022-11-16T04:39:38.227Z,18.5
2022-11-16T04:40:40.408Z,18.6
2022-11-16T04:41:42.890Z,18.5
2022-11-16T04:42:45.612Z,18.7
2022-11-16T04:43:48.093Z,18.6
2022-11-16T04:44:50.592Z,18.6
2022-11-16T04:45:53.373Z,18.6
2022-11-16T04:46:55.918Z,18.6
2022-11-16T04:47:58.431Z,18.5
2022-11-16T04:49:00.243Z,18.5
2022-11-16T04:50:02.793Z,18.6
2022-11-16T04:51:05.009Z,18.7
2022-11-16T04:52:07.193Z,18.7
2022-11-16T04:53:09.691Z,18.5
2022-11-16T04:54:11.902Z,18.6
2022-11-16T04:55:14.098Z,18.6
2022-11-16T04:56:16.569Z,18.5
2022-11-16T04:57:17.931Z,18.6
2022-11-16T04:58:19.867Z,18.6
2022-11-16T04:59:22.066Z,18.6
2022-11-16T05:00:24.600Z,18.5
2022-11-16T05:01:27.184Z,18.5
2022-11-16T05:02:29.982Z,18.6
2022-11-16T05:03:31.948Z,18.6
2022-11-16T05:04:34.147Z,18.6
2022-11-16T05:05:36.612Z,18.5
2022-11-16T05:06:38.807Z,18.6
2022-11-16T05:07:40.460Z,18.5
2022-11-16T05:08:42.951Z,18.6
2022-11-16T05:09:45.129Z,18.5
2022-11-16T05:10:47.598Z,18.5
2022-11-16T05:11:49.525Z,18.5
2022-11-16T05:12:52.001Z,18.6
2022-11-16T05:13:54.496Z,18.4
2022-11-16T05:14:56.721Z,18.5
2022-11-16T05:15:58.413Z,18.5
2022-11-16T05:17:00.889Z,18.6
2022-11-16T05:18:03.354Z,18.4
2022-11-16T05:19:05.608Z,18.5
2022-11-16T05:20:08.074Z,18.5
2022-11-16T05:21:10.253Z,18.5
2022-11-16T05:22:12.167Z,18.5
2022-11-16T05:23:14.369Z,18.5
2022-11-16T05:24:16.291Z,18.6
2022-11-16T05:25:17.948Z,18.5
2022-11-16T05:26:20.434Z,18.5
2022-11-16T05:27:22.375Z,18.5
2022-11-16T05:28:24.283Z,18.5
2022-11-16T05:29:26.785Z,18.5
2022-11-16T05:30:29.317Z,18.5
2022-11-16T05:32:36.509Z,18.5
2022-11-16T05:33:38.712Z,18.5
2022-11-16T05:34:40.952Z,18.5
2022-11-16T05:35:43.157Z,18.5
2022-11-16T05:36:45.624Z,18.4
2022-11-16T05:37:48.105Z,18.5
2022-11-16T05:39:55.574Z,18.4
2022-11-16T05:40:58.180Z,18.4
2022-11-16T05:42:00.374Z,18.4
2022-11-16T05:43:02.865Z,18.6
2022-11-16T05:44:04.766Z,18.4
2022-11-16T05:45:07.011Z,18.5
2022-11-16T05:46:09.494Z,18.5
2022-11-16T05:47:11.694Z,18.5
2022-11-16T05:48:13.900Z,18.5
2022-11-16T05:49:16.104Z,18.4
2022-11-16T05:50:18.626Z,18.3
2022-11-16T05:51:21.179Z,18.5
2022-11-16T05:52:23.672Z,18.4
2022-11-16T05:53:26.139Z,18.4
2022-11-16T05:54:28.629Z,18.5
2022-11-16T05:55:31.131Z,18.4
2022-11-16T05:56:33.768Z,18.4
2022-11-16T05:57:36.252Z,18.4
2022-11-16T05:58:38.738Z,18.5
2022-11-16T05:59:40.941Z,18.5
2022-11-16T06:00:43.439Z,18.5
2022-11-16T06:01:45.931Z,18.4
2022-11-16T06:02:48.480Z,18.3
2022-11-16T06:03:50.907Z,18.5
2022-11-16T06:04:53.073Z,18.5
2022-11-16T06:05:55.616Z,18.4
2022-11-16T06:06:58.194Z,18.4
2022-11-16T06:08:00.354Z,18.5
2022-11-16T06:09:02.832Z,18.4
2022-11-16T06:10:05.143Z,18.5
2022-11-16T06:11:07.616Z,18.4
2022-11-16T06:12:09.839Z,18.4
2022-11-16T06:13:12.041Z,18.4
2022-11-16T06:14:14.236Z,18.4
2022-11-16T06:15:16.715Z,18.3
2022-11-16T06:16:19.798Z,18.4
2022-11-16T06:17:23.214Z,18.4
2022-11-16T06:18:25.698Z,18.5
2022-11-16T06:20:33.197Z,18.4
2022-11-16T06:21:35.229Z,18.5
2022-11-16T06:22:37.138Z,18.5
2022-11-16T06:23:39.333Z,18.4
2022-11-16T06:24:41.522Z,18.4
2022-11-16T06:25:43.999Z,18.4
2022-11-16T06:26:46.171Z,18.4
2022-11-16T06:27:48.662Z,18.5
2022-11-16T06:28:51.128Z,18.5
2022-11-16T06:29:53.333Z,18.4
2022-11-16T06:30:55.555Z,18.4
2022-11-16T06:31:58.141Z,18.5
2022-11-16T06:33:01.523Z,18.4
2022-11-16T06:34:04.018Z,18.4
2022-11-16T06:35:06.487Z,18.4
2022-11-16T06:36:08.699Z,18.3
2022-11-16T06:37:11.186Z,18.4
2022-11-16T06:38:13.383Z,18.4
2022-11-16T06:39:15.858Z,18.4
2022-11-16T06:40:17.796Z,18.4
2022-11-16T06:41:20.275Z,18.3
2022-11-16T06:42:22.457Z,18.4
2022-11-16T06:43:24.970Z,18.4
2022-11-16T06:44:27.444Z,18.4
2022-11-16T06:45:29.636Z,18.4
2022-11-16T06:46:32.116Z,18.4
2022-11-16T06:47:34.696Z,18.4
2022-11-16T06:48:38.175Z,18.3
2022-11-16T06:49:40.388Z,18.4
2022-11-16T06:50:42.592Z,18.4
2022-11-16T06:51:45.075Z,18.4
2022-11-16T06:52:47.275Z,18.3
2022-11-16T06:53:49.746Z,18.5
2022-11-16T06:54:52.228Z,18.4
2022-11-16T06:55:54.429Z,18.3
2022-11-16T06:56:56.914Z,18.3
2022-11-16T06:57:59.388Z,18.5
2022-11-16T06:59:01.867Z,18.5
2022-11-16T07:00:04.063Z,18.4
2022-11-16T07:01:06.237Z,18.4
2022-11-16T07:02:08.582Z,18.3
2022-11-16T07:03:11.525Z,18.4
2022-11-16T07:04:14.147Z,18.4
2022-11-16T07:05:16.075Z,18.4
2022-11-16T07:06:18.289Z,18.4
2022-11-16T07:07:21.060Z,18.4
2022-11-16T07:08:23.914Z,18.3
2022-11-16T07:09:26.381Z,18.3
2022-11-16T07:10:28.853Z,18.4
2022-11-16T07:11:30.871Z,18.4
2022-11-16T07:12:33.042Z,18.4
2022-11-16T07:13:35.296Z,18.4
2022-11-16T07:14:37.834Z,18.4
2022-11-16T07:15:40.334Z,18.4
2022-11-16T07:16:42.822Z,18.4
2022-11-16T07:17:45.294Z,18.4
2022-11-16T07:18:48.212Z,18.3
2022-11-16T07:19:51.411Z,18.4
2022-11-16T07:20:53.631Z,18.4
2022-11-16T07:21:56.106Z,18.2
2022-11-16T07:22:58.601Z,18.3
2022-11-16T07:24:00.784Z,18.4
2022-11-16T07:25:03.261Z,18.3
2022-11-16T07:26:05.750Z,18.4
2022-11-16T07:27:08.069Z,18.4
2022-11-16T07:28:10.572Z,18.4
2022-11-16T07:29:13.094Z,18.3
2022-11-16T07:30:15.575Z,18.4
2022-11-16T07:31:17.541Z,18.4
2022-11-16T07:32:20.044Z,18.3
2022-11-16T07:33:21.694Z,18.3
2022-11-16T07:34:24.626Z,18.4
2022-11-16T07:35:27.380Z,18.3
2022-11-16T07:36:29.868Z,18.3
2022-11-16T07:37:32.069Z,18.4
2022-11-16T07:38:34.627Z,18.4
2022-11-16T07:39:38.144Z,18.4
2022-11-16T07:40:40.620Z,18.3
2022-11-16T07:41:43.100Z,18.3
2022-11-16T07:42:45.316Z,18.4
2022-11-16T07:44:52.594Z,18.4
2022-11-16T07:46:59.782Z,18.3
2022-11-16T07:48:01.985Z,18.3
2022-11-16T07:50:08.940Z,18.4
2022-11-16T07:51:11.870Z,18.4
2022-11-16T07:52:14.059Z,18.3
2022-11-16T07:53:16.264Z,18.3
2022-11-16T07:54:18.777Z,18.3
2022-11-16T07:55:21.260Z,18.3
2022-11-16T07:56:23.734Z,18.4
2022-11-16T07:57:26.218Z,18.3
2022-11-16T07:58:28.697Z,18.3
2022-11-16T07:59:31.274Z,18.3
2022-11-16T08:00:33.740Z,18.4
2022-11-16T08:01:36.330Z,18.4
2022-11-16T08:02:37.968Z,18.3
2022-11-16T08:03:40.470Z,18.3
2022-11-16T08:04:42.960Z,18.3
2022-11-16T08:05:45.599Z,18.3
2022-11-16T08:06:48.436Z,18.3
2022-11-16T08:07:51.210Z,18.3
2022-11-16T08:09:58.751Z,18.3
2022-11-16T08:11:01.179Z,18.3
2022-11-16T08:12:03.778Z,18.3
2022-11-16T08:13:06.260Z,18.3
2022-11-16T08:14:08.727Z,18.3
2022-11-16T08:15:11.218Z,18.3
2022-11-16T08:16:13.442Z,18.3
2022-11-16T08:17:15.653Z,18.3
2022-11-16T08:18:17.934Z,18.4
2022-11-16T08:19:20.415Z,18.3
2022-11-16T08:20:22.900Z,18.3
2022-11-16T08:21:25.343Z,18.4
2022-11-16T08:22:28.187Z,18.3
2022-11-16T08:23:30.126Z,18.4
2022-11-16T08:24:32.607Z,18.3
2022-11-16T08:25:35.103Z,18.3
2022-11-16T08:26:37.290Z,18.3
2022-11-16T08:27:39.216Z,18.3
2022-11-16T08:28:41.699Z,18.4
2022-11-16T08:29:43.943Z,18.3
2022-11-16T08:31:51.460Z,18.2
2022-11-16T08:32:53.988Z,18.4
2022-11-16T08:33:56.495Z,18.2
2022-11-16T08:34:58.889Z,18.4
2022-11-16T08:36:01.100Z,18.3
2022-11-16T08:37:03.733Z,18.3
2022-11-16T08:38:06.482Z,18.2
2022-11-16T08:39:08.697Z,18.3
2022-11-16T08:40:10.903Z,18.2
2022-11-16T08:41:12.813Z,18.3
2022-11-16T08:42:14.751Z,18.3
2022-11-16T08:43:16.684Z,18.4
2022-11-16T08:44:19.842Z,18.3
2022-11-16T08:45:22.378Z,18.3
2022-11-16T08:46:24.349Z,18.3
2022-11-16T08:47:26.865Z,18.3
2022-11-16T08:48:28.767Z,18.2
2022-11-16T08:49:30.702Z,18.4
2022-11-16T08:51:38.178Z,18.2
2022-11-16T08:52:40.736Z,18.3
2022-11-16T08:53:43.596Z,18.3
2022-11-16T08:54:45.819Z,18.4
2022-11-16T08:55:48.033Z,18.3
2022-11-16T08:56:49.959Z,18.2
2022-11-16T08:57:52.475Z,18.3
2022-11-16T08:59:59.683Z,18.4
2022-11-16T09:01:01.888Z,18.3
2022-11-16T09:02:03.942Z,18.4
2022-11-16T09:03:06.674Z,18.3
2022-11-16T09:04:08.839Z,18.3
2022-11-16T09:05:11.044Z,18.3
2022-11-16T09:06:13.545Z,18.3
2022-11-16T09:07:16.415Z,18.2
2022-11-16T09:08:19.075Z,18.3
2022-11-16T09:09:21.938Z,18.3
2022-11-16T09:10:24.224Z,18.2
2022-11-16T09:11:26.559Z,18.3
2022-11-16T09:12:28.462Z,18.2
2022-11-16T09:13:30.680Z,18.3
2022-11-16T09:14:32.315Z,18.3
2022-11-16T09:15:34.535Z,18.2
2022-11-16T09:16:37.029Z,18.2
2022-11-16T09:17:39.527Z,18.4
2022-11-16T09:18:42.023Z,18.3
2022-11-16T09:19:44.502Z,18.3
2022-11-16T09:20:46.702Z,18.3
2022-11-16T09:21:49.202Z,18.3
2022-11-16T09:22:51.474Z,18.3
2022-11-16T09:23:53.948Z,18.3
2022-11-16T09:24:56.686Z,18.3
2022-11-16T09:25:58.641Z,18.3
2022-11-16T09:27:01.132Z,18.2
2022-11-16T09:28:03.415Z,18.3
2022-11-16T09:29:05.619Z,18.4
2022-11-16T09:30:08.097Z,18.3
2022-11-16T09:31:10.362Z,18.2
2022-11-16T09:32:12.348Z,18.2
2022-11-16T09:33:14.825Z,18.4
2022-11-16T09:34:17.039Z,18.3
2022-11-16T09:35:19.239Z,18.3
2022-11-16T09:36:21.794Z,18.3
2022-11-16T09:37:24.268Z,18.3
2022-11-16T09:39:32.800Z,18.2
2022-11-16T09:40:35.577Z,18.3
2022-11-16T09:41:37.800Z,18.3
2022-11-16T09:42:40.284Z,18.3
2022-11-16T09:44:47.221Z,18.3
2022-11-16T09:45:49.730Z,18.2
2022-11-16T09:46:52.211Z,18.3
2022-11-16T09:47:54.451Z,18.3
2022-11-16T09:48:56.640Z,18.3
2022-11-16T09:51:03.573Z,18.3
2022-11-16T09:52:05.620Z,18.3
2022-11-16T09:53:07.580Z,18.3
2022-11-16T09:54:10.071Z,18.3
2022-11-16T09:57:22.551Z,18.3
2022-11-16T09:58:25.400Z,18.3
2022-11-16T09:59:27.915Z,18.3
2022-11-16T10:00:30.321Z,18.2
2022-11-16T10:01:32.872Z,18.3
2022-11-16T10:02:35.117Z,18.3
2022-11-16T10:03:37.825Z,18.3
2022-11-16T10:04:40.047Z,18.3
2022-11-16T10:05:42.245Z,18.4
2022-11-16T10:06:44.157Z,18.3
2022-11-16T10:07:46.364Z,18.3
2022-11-16T10:08:48.578Z,18.3
2022-11-16T10:09:50.788Z,18.3
2022-11-16T10:10:53.481Z,18.4
2022-11-16T10:11:56.000Z,18.3
2022-11-16T10:12:58.631Z,18.3
2022-11-16T10:15:06.161Z,18.3
2022-11-16T10:16:08.087Z,18.3
2022-11-16T10:17:10.327Z,18.3
2022-11-16T10:18:12.272Z,18.2
2022-11-16T10:19:13.930Z,18.3
2022-11-16T10:20:16.677Z,18.3
2022-11-16T10:21:18.890Z,18.2
2022-11-16T10:22:21.388Z,18.3
2022-11-16T10:23:23.869Z,18.3
2022-11-16T10:24:26.365Z,18.2
2022-11-16T10:25:28.846Z,18.2
2022-11-16T10:26:30.885Z,18.3
2022-11-16T10:27:33.116Z,18.3
2022-11-16T10:28:35.452Z,18.3
2022-11-16T10:29:38.088Z,18.2
2022-11-16T10:30:40.597Z,18.2
2022-11-16T10:31:43.098Z,18.2
2022-11-16T10:32:45.328Z,18.3
2022-11-16T10:33:47.543Z,18.2
2022-11-16T10:34:49.778Z,18.3
2022-11-16T10:35:51.687Z,18.3
2022-11-16T10:36:54.182Z,18.3
2022-11-16T10:37:56.383Z,18.2
2022-11-16T10:38:58.861Z,18.3
2022-11-16T10:40:00.774Z,18.2
2022-11-16T10:41:03.292Z,18.3
2022-11-16T10:43:10.577Z,18.3
2022-11-16T10:44:13.084Z,18.2
2022-11-16T10:45:15.822Z,18.3
2022-11-16T10:46:18.019Z,18.3
2022-11-16T10:47:20.597Z,18.2
2022-11-16T10:48:22.545Z,18.2
2022-11-16T10:49:25.094Z,18.2
2022-11-16T10:50:27.044Z,18.3
2022-11-16T10:51:28.971Z,18.2
2022-11-16T10:52:31.186Z,18.3
2022-11-16T10:53:34.340Z,18.3
2022-11-16T10:55:43.327Z,18.3
2022-11-16T10:56:45.813Z,18.1
2022-11-16T10:57:48.435Z,18.2
2022-11-16T10:58:50.634Z,18.2
2022-11-16T10:59:52.953Z,18.3
2022-11-16T11:00:55.648Z,18.2
2022-11-16T11:01:57.751Z,18.3
2022-11-16T11:03:00.246Z,18.3
2022-11-16T11:04:02.172Z,18.3
2022-11-16T11:05:04.381Z,18.3
2022-11-16T11:06:06.297Z,18.3
2022-11-16T11:07:08.824Z,18.2
2022-11-16T11:08:11.200Z,18.3
2022-11-16T11:09:13.425Z,18.2
2022-11-16T11:10:15.633Z,18.3
2022-11-16T11:11:17.667Z,18.3
2022-11-16T11:12:19.888Z,18.2
2022-11-16T11:13:22.380Z,18.3
2022-11-16T11:14:24.867Z,18.3
2022-11-16T11:15:27.482Z,18.3
2022-11-16T11:16:30.216Z,18.2
2022-11-16T11:17:32.689Z,18.2
2022-11-16T11:18:35.159Z,18.3
2022-11-16T11:19:37.365Z,18.3
2022-11-16T11:21:44.568Z,18.2
2022-11-16T11:22:47.042Z,18.2
2022-11-16T11:23:49.220Z,18.3
2022-11-16T11:24:51.744Z,18.3
2022-11-16T11:25:53.953Z,18.2
2022-11-16T11:26:56.158Z,18.2
2022-11-16T11:27:58.369Z,18.2
2022-11-16T11:29:00.928Z,18.2
2022-11-16T11:30:02.852Z,18.2
2022-11-16T11:31:05.296Z,18.3
2022-11-16T11:32:08.136Z,18.2
2022-11-16T11:33:10.618Z,18.2
2022-11-16T11:34:13.105Z,18.3
2022-11-16T11:35:15.068Z,18.2
2022-11-16T11:36:16.974Z,18.2
2022-11-16T11:37:19.247Z,18.2
2022-11-16T11:38:21.469Z,18.3
2022-11-16T11:39:23.449Z,18.2
2022-11-16T11:40:25.951Z,18.3
2022-11-16T11:41:27.601Z,18.3
2022-11-16T11:42:29.832Z,18.2
2022-11-16T11:43:33.079Z,18.3
2022-11-16T11:44:37.218Z,18.2
2022-11-16T11:45:39.692Z,18.1
2022-11-16T11:48:52.019Z,18.3
2022-11-16T11:49:54.386Z,18.3
2022-11-16T11:50:56.595Z,18.2
2022-11-16T11:51:58.812Z,18.3
2022-11-16T11:53:01.013Z,18.3
2022-11-16T11:54:03.221Z,18.3
2022-11-16T11:55:05.432Z,18.3
2022-11-16T11:56:07.913Z,18.3
2022-11-16T11:57:10.117Z,18.3
2022-11-16T11:58:12.624Z,18.3
2022-11-16T11:59:15.142Z,18.2
2022-11-16T12:00:17.652Z,18.2
2022-11-16T12:02:24.836Z,18.4
2022-11-16T12:03:27.059Z,18.3
2022-11-16T12:04:29.295Z,18.3
2022-11-16T12:05:31.943Z,18.3
2022-11-16T12:06:33.923Z,18.4
2022-11-16T12:07:40.716Z,18.3
2022-11-16T12:08:43.029Z,18.4
2022-11-16T12:09:45.514Z,18.3
2022-11-16T12:10:47.188Z,18.2
2022-11-16T12:11:49.663Z,18.3
2022-11-16T12:12:51.896Z,18.2
2022-11-16T12:13:54.087Z,18.2
2022-11-16T12:14:56.664Z,18.2
2022-11-16T12:15:58.460Z,18.2
2022-11-16T12:17:00.951Z,18.2
2022-11-16T12:18:03.458Z,18.2
2022-11-16T12:19:05.940Z,18.3
2022-11-16T12:20:08.301Z,18.3
2022-11-16T12:21:10.946Z,18.2
2022-11-16T12:22:13.157Z,18.3
2022-11-16T12:23:15.401Z,18.2
2022-11-16T12:24:17.908Z,18.2
2022-11-16T12:25:19.837Z,18.3
2022-11-16T12:26:21.492Z,18.2
2022-11-16T12:27:23.592Z,18.2
2022-11-16T12:28:26.111Z,18.3
2022-11-16T12:29:28.592Z,18.4
2022-11-16T12:30:31.063Z,18.3
2022-11-16T12:31:33.690Z,18.2
2022-11-16T12:32:36.243Z,18.2
2022-11-16T12:33:39.357Z,18.2
2022-11-16T12:34:41.861Z,18.2
2022-11-16T12:35:44.464Z,18.3
2022-11-16T12:36:47.146Z,18.3
2022-11-16T12:37:49.350Z,18.2
2022-11-16T12:38:51.848Z,18.2
2022-11-16T12:39:54.328Z,18.3
2022-11-16T12:40:56.804Z,18.2
2022-11-16T12:41:59.284Z,18.1
2022-11-16T12:43:01.794Z,18.3
2022-11-16T12:44:04.294Z,18.2
2022-11-16T12:45:06.792Z,18.2
2022-11-16T12:46:09.010Z,18.3
2022-11-16T12:47:11.525Z,18.2
2022-11-16T12:48:13.472Z,18.2
2022-11-16T12:49:16.055Z,18.2
2022-11-16T12:50:18.536Z,18.2
2022-11-16T12:51:20.487Z,18.3
2022-11-16T12:52:27.673Z,18.2
2022-11-16T12:53:29.877Z,18.3
2022-11-16T12:54:33.252Z,18.2
2022-11-16T12:55:35.456Z,18.3
2022-11-16T12:56:37.967Z,18.2
2022-11-16T12:57:42.476Z,18.3
2022-11-16T12:58:44.716Z,18.2
2022-11-16T12:59:46.943Z,18.2
2022-11-16T13:00:49.578Z,18.2
2022-11-16T13:02:57.472Z,18.3
2022-11-16T13:03:59.381Z,18.3
2022-11-16T13:05:01.588Z,18.2
2022-11-16T13:06:04.068Z,18.2
2022-11-16T13:08:11.382Z,18.2
2022-11-16T13:09:14.125Z,18.2
2022-11-16T13:10:16.606Z,18.3
2022-11-16T13:11:19.086Z,18.2
2022-11-16T13:12:21.004Z,18.2
2022-11-16T13:14:28.474Z,18.3
2022-11-16T13:15:30.421Z,18.2
2022-11-16T13:16:32.633Z,18.2
2022-11-16T13:17:34.828Z,18.2
2022-11-16T13:18:37.407Z,18.2
2022-11-16T13:19:39.891Z,18.2
2022-11-16T13:20:42.065Z,18.2
2022-11-16T13:21:44.564Z,18.3
2022-11-16T13:22:47.048Z,18.2
2022-11-16T13:23:49.639Z,18.2
2022-11-16T13:24:52.264Z,18.2
2022-11-16T13:25:54.530Z,18.2
2022-11-16T13:26:57.007Z,18.2
2022-11-16T13:27:59.488Z,18.2
2022-11-16T13:29:01.690Z,18.2
2022-11-16T13:30:04.168Z,18.2
2022-11-16T13:31:06.643Z,18.2
2022-11-16T13:32:08.845Z,18.3
2022-11-16T13:33:11.049Z,18.3
2022-11-16T13:34:13.385Z,18.2
2022-11-16T13:35:15.863Z,18.2
2022-11-16T13:36:17.806Z,18.3
2022-11-16T13:37:20.354Z,18.3
2022-11-16T13:38:22.831Z,18.2
2022-11-16T13:39:25.338Z,18.3
2022-11-16T13:40:27.988Z,18.3
2022-11-16T13:41:29.890Z,18.3
2022-11-16T13:42:32.106Z,18.2
2022-11-16T13:43:34.662Z,18.3
2022-11-16T13:44:36.594Z,18.2
2022-11-16T13:45:39.072Z,18.3
2022-11-16T13:47:46.538Z,18.2
2022-11-16T13:48:48.748Z,18.2
2022-11-16T13:49:51.270Z,18.2
2022-11-16T13:50:53.193Z,18.3
2022-11-16T13:51:55.170Z,18.2
2022-11-16T13:55:07.376Z,18.3
2022-11-16T13:56:09.759Z,18.3
2022-11-16T13:57:11.958Z,18.2
2022-11-16T13:58:14.427Z,18.3
2022-11-16T13:59:16.827Z,18.2
2022-11-16T14:00:18.789Z,18.2
2022-11-16T14:01:21.484Z,18.3
2022-11-16T14:02:25.220Z,18.3
2022-11-16T14:03:27.698Z,18.2
2022-11-16T14:04:29.924Z,18.3
2022-11-16T14:05:32.331Z,18.2
2022-11-16T14:06:34.548Z,18.3
2022-11-16T14:07:36.490Z,18.2
2022-11-16T14:08:38.995Z,18.3
2022-11-16T14:09:41.515Z,18.3
2022-11-16T14:10:43.803Z,18.2
2022-11-16T14:11:46.631Z,18.2
2022-11-16T14:12:49.115Z,18.2
2022-11-16T14:13:51.588Z,18.3
2022-11-16T14:14:54.913Z,18.3
2022-11-16T14:16:01.986Z,18.3
2022-11-16T14:17:03.901Z,18.2
2022-11-16T14:18:06.113Z,18.2
2022-11-16T14:19:08.361Z,18.3
2022-11-16T14:20:10.596Z,18.2
2022-11-16T14:21:12.889Z,18.2
2022-11-16T14:22:14.822Z,18.2
2022-11-16T14:23:17.297Z,18.2